sensor_id;sensor_type;location;lat;lon;timestamp;P1;durP1;ratioP1;P2;durP2;ratioP2
72261;SDS011;60173;52.112;8.648;2023-05-02T00:01:18;5.82;;;4.78;;
72261;SDS011;60173;52.112;8.648;2023-05-02T00:03:44;5.68;;;4.72;;
72261;SDS011;60173;52.112;8.648;2023-05-02T00:06:11;6.95;;;5.00;;
72261;SDS011;60173;52.112;8.648;2023-05-02T00:08:38;7.80;;;5.00;;
72261;SDS011;60173;52.112;8.648;2023-05-02T00:11:04;6.57;;;5.03;;
72261;SDS011;60173;52.112;8.648;2023-05-02T00:13:31;6.50;;;5.38;;
72261;SDS011;60173;52.112;8.648;2023-05-02T00:15:57;8.75;;;5.45;;
72261;SDS011;60173;52.112;8.648;2023-05-02T00:18:23;7.45;;;5.10;;
72261;SDS011;60173;52.112;8.648;2023-05-02T00:20:50;6.70;;;5.03;;
72261;SDS011;60173;52.112;8.648;2023-05-02T00:23:16;6.75;;;5.38;;
72261;SDS011;60173;52.112;8.648;2023-05-02T00:25:43;7.47;;;5.20;;
72261;SDS011;60173;52.112;8.648;2023-05-02T00:28:10;6.82;;;4.97;;
72261;SDS011;60173;52.112;8.648;2023-05-02T00:30:41;9.00;;;5.18;;
72261;SDS011;60173;52.112;8.648;2023-05-02T00:33:10;7.35;;;5.55;;
72261;SDS011;60173;52.112;8.648;2023-05-02T00:35:37;8.07;;;5.40;;
72261;SDS011;60173;52.112;8.648;2023-05-02T00:38:04;5.88;;;5.13;;
72261;SDS011;60173;52.112;8.648;2023-05-02T00:40:30;9.15;;;5.90;;
72261;SDS011;60173;52.112;8.648;2023-05-02T00:42:56;7.53;;;5.63;;
72261;SDS011;60173;52.112;8.648;2023-05-02T00:45:23;6.80;;;4.97;;
72261;SDS011;60173;52.112;8.648;2023-05-02T00:47:49;7.90;;;5.95;;
72261;SDS011;60173;52.112;8.648;2023-05-02T00:50:16;7.82;;;6.20;;
72261;SDS011;60173;52.112;8.648;2023-05-02T00:52:43;5.93;;;5.22;;
72261;SDS011;60173;52.112;8.648;2023-05-02T00:55:09;7.05;;;5.63;;
72261;SDS011;60173;52.112;8.648;2023-05-02T00:57:36;8.10;;;5.72;;
72261;SDS011;60173;52.112;8.648;2023-05-02T01:00:03;7.32;;;5.85;;
72261;SDS011;60173;52.112;8.648;2023-05-02T01:02:43;7.93;;;5.70;;
72261;SDS011;60173;52.112;8.648;2023-05-02T01:05:16;8.35;;;6.00;;
72261;SDS011;60173;52.112;8.648;2023-05-02T01:07:58;8.70;;;6.22;;
72261;SDS011;60173;52.112;8.648;2023-05-02T01:15:44;8.35;;;5.97;;
72261;SDS011;60173;52.112;8.648;2023-05-02T01:18:12;10.73;;;7.10;;
72261;SDS011;60173;52.112;8.648;2023-05-02T01:20:42;9.63;;;6.60;;
72261;SDS011;60173;52.112;8.648;2023-05-02T01:23:22;10.10;;;6.60;;
72261;SDS011;60173;52.112;8.648;2023-05-02T01:26:05;8.57;;;6.97;;
72261;SDS011;60173;52.112;8.648;2023-05-02T01:28:56;8.50;;;6.70;;
72261;SDS011;60173;52.112;8.648;2023-05-02T01:31:19;12.23;;;8.23;;
72261;SDS011;60173;52.112;8.648;2023-05-02T01:33:50;10.18;;;7.38;;
72261;SDS011;60173;52.112;8.648;2023-05-02T01:36:17;14.65;;;8.85;;
72261;SDS011;60173;52.112;8.648;2023-05-02T01:38:45;12.75;;;8.68;;
72261;SDS011;60173;52.112;8.648;2023-05-02T01:41:12;13.80;;;9.93;;
72261;SDS011;60173;52.112;8.648;2023-05-02T01:43:39;16.23;;;11.25;;
72261;SDS011;60173;52.112;8.648;2023-05-02T01:46:07;18.40;;;12.68;;
72261;SDS011;60173;52.112;8.648;2023-05-02T01:48:36;19.98;;;14.23;;
72261;SDS011;60173;52.112;8.648;2023-05-02T01:51:02;24.17;;;15.18;;
72261;SDS011;60173;52.112;8.648;2023-05-02T01:53:32;23.73;;;16.05;;
72261;SDS011;60173;52.112;8.648;2023-05-02T01:56:00;23.48;;;15.73;;
72261;SDS011;60173;52.112;8.648;2023-05-02T01:58:28;24.95;;;16.92;;
72261;SDS011;60173;52.112;8.648;2023-05-02T02:00:57;26.15;;;17.27;;
72261;SDS011;60173;52.112;8.648;2023-05-02T02:03:26;26.90;;;16.92;;
72261;SDS011;60173;52.112;8.648;2023-05-02T02:05:56;33.13;;;19.80;;
72261;SDS011;60173;52.112;8.648;2023-05-02T02:08:24;31.40;;;19.67;;
72261;SDS011;60173;52.112;8.648;2023-05-02T02:10:54;30.25;;;19.27;;
72261;SDS011;60173;52.112;8.648;2023-05-02T02:13:26;30.90;;;19.17;;
72261;SDS011;60173;52.112;8.648;2023-05-02T02:16:00;32.25;;;21.25;;
72261;SDS011;60173;52.112;8.648;2023-05-02T02:18:31;40.17;;;25.00;;
72261;SDS011;60173;52.112;8.648;2023-05-02T02:21:01;35.50;;;23.00;;
72261;SDS011;60173;52.112;8.648;2023-05-02T02:23:31;41.80;;;25.23;;
72261;SDS011;60173;52.112;8.648;2023-05-02T02:25:59;39.20;;;24.98;;
72261;SDS011;60173;52.112;8.648;2023-05-02T02:28:27;39.25;;;25.05;;
72261;SDS011;60173;52.112;8.648;2023-05-02T02:30:53;43.88;;;25.33;;
72261;SDS011;60173;52.112;8.648;2023-05-02T02:33:20;39.45;;;24.55;;
72261;SDS011;60173;52.112;8.648;2023-05-02T02:35:52;42.13;;;24.40;;
72261;SDS011;60173;52.112;8.648;2023-05-02T02:38:44;44.25;;;24.38;;
72261;SDS011;60173;52.112;8.648;2023-05-02T02:41:21;41.42;;;22.85;;
72261;SDS011;60173;52.112;8.648;2023-05-02T02:43:57;40.45;;;22.83;;
72261;SDS011;60173;52.112;8.648;2023-05-02T02:55:16;46.07;;;25.10;;
72261;SDS011;60173;52.112;8.648;2023-05-02T02:57:50;43.08;;;23.98;;
72261;SDS011;60173;52.112;8.648;2023-05-02T03:00:24;43.45;;;24.35;;
72261;SDS011;60173;52.112;8.648;2023-05-02T03:02:52;47.28;;;25.27;;
72261;SDS011;60173;52.112;8.648;2023-05-02T03:05:20;50.03;;;25.63;;
72261;SDS011;60173;52.112;8.648;2023-05-02T03:07:47;49.03;;;26.23;;
72261;SDS011;60173;52.112;8.648;2023-05-02T03:10:13;43.38;;;24.15;;
72261;SDS011;60173;52.112;8.648;2023-05-02T03:12:40;42.42;;;25.45;;
72261;SDS011;60173;52.112;8.648;2023-05-02T03:15:10;45.63;;;26.38;;
72261;SDS011;60173;52.112;8.648;2023-05-02T03:17:46;43.78;;;25.65;;
72261;SDS011;60173;52.112;8.648;2023-05-02T03:20:13;50.03;;;26.52;;
72261;SDS011;60173;52.112;8.648;2023-05-02T03:22:39;50.95;;;27.00;;
72261;SDS011;60173;52.112;8.648;2023-05-02T03:25:06;47.63;;;25.92;;
72261;SDS011;60173;52.112;8.648;2023-05-02T03:27:32;46.20;;;26.80;;
72261;SDS011;60173;52.112;8.648;2023-05-02T03:29:58;45.22;;;25.40;;
72261;SDS011;60173;52.112;8.648;2023-05-02T03:32:25;50.00;;;27.90;;
72261;SDS011;60173;52.112;8.648;2023-05-02T03:34:52;43.60;;;25.35;;
72261;SDS011;60173;52.112;8.648;2023-05-02T03:37:18;44.42;;;25.67;;
72261;SDS011;60173;52.112;8.648;2023-05-02T03:39:44;38.72;;;23.77;;
72261;SDS011;60173;52.112;8.648;2023-05-02T03:42:11;45.38;;;25.70;;
72261;SDS011;60173;52.112;8.648;2023-05-02T03:44:37;44.97;;;25.92;;
72261;SDS011;60173;52.112;8.648;2023-05-02T03:47:03;43.97;;;25.80;;
72261;SDS011;60173;52.112;8.648;2023-05-02T03:49:30;44.30;;;25.13;;
72261;SDS011;60173;52.112;8.648;2023-05-02T03:51:59;47.03;;;25.50;;
72261;SDS011;60173;52.112;8.648;2023-05-02T03:54:25;44.13;;;25.15;;
72261;SDS011;60173;52.112;8.648;2023-05-02T03:56:52;41.40;;;23.60;;
72261;SDS011;60173;52.112;8.648;2023-05-02T03:59:19;46.28;;;25.73;;
72261;SDS011;60173;52.112;8.648;2023-05-02T04:01:48;46.22;;;25.15;;
72261;SDS011;60173;52.112;8.648;2023-05-02T04:04:15;45.15;;;24.98;;
72261;SDS011;60173;52.112;8.648;2023-05-02T04:06:41;44.88;;;24.15;;
72261;SDS011;60173;52.112;8.648;2023-05-02T04:09:07;46.50;;;25.23;;
72261;SDS011;60173;52.112;8.648;2023-05-02T04:11:34;45.22;;;23.85;;
72261;SDS011;60173;52.112;8.648;2023-05-02T04:14:00;45.00;;;24.83;;
72261;SDS011;60173;52.112;8.648;2023-05-02T04:16:26;48.10;;;24.92;;
72261;SDS011;60173;52.112;8.648;2023-05-02T04:18:53;46.55;;;25.30;;
72261;SDS011;60173;52.112;8.648;2023-05-02T04:21:19;51.72;;;25.95;;
72261;SDS011;60173;52.112;8.648;2023-05-02T04:23:46;44.95;;;25.65;;
72261;SDS011;60173;52.112;8.648;2023-05-02T04:26:12;46.08;;;25.08;;
72261;SDS011;60173;52.112;8.648;2023-05-02T04:28:39;47.70;;;25.23;;
72261;SDS011;60173;52.112;8.648;2023-05-02T04:31:06;46.20;;;24.50;;
72261;SDS011;60173;52.112;8.648;2023-05-02T04:33:33;57.63;;;27.40;;
72261;SDS011;60173;52.112;8.648;2023-05-02T04:35:59;50.55;;;25.88;;
72261;SDS011;60173;52.112;8.648;2023-05-02T04:38:26;44.90;;;24.70;;
72261;SDS011;60173;52.112;8.648;2023-05-02T04:40:52;46.88;;;24.02;;
72261;SDS011;60173;52.112;8.648;2023-05-02T04:43:19;49.58;;;24.35;;
72261;SDS011;60173;52.112;8.648;2023-05-02T04:45:46;49.25;;;24.35;;
72261;SDS011;60173;52.112;8.648;2023-05-02T04:48:13;45.63;;;24.40;;
72261;SDS011;60173;52.112;8.648;2023-05-02T04:50:39;41.45;;;22.77;;
72261;SDS011;60173;52.112;8.648;2023-05-02T04:53:05;47.65;;;24.50;;
72261;SDS011;60173;52.112;8.648;2023-05-02T04:55:32;45.97;;;23.50;;
72261;SDS011;60173;52.112;8.648;2023-05-02T04:57:58;41.60;;;21.63;;
72261;SDS011;60173;52.112;8.648;2023-05-02T05:00:24;41.53;;;21.33;;
72261;SDS011;60173;52.112;8.648;2023-05-02T05:02:51;38.75;;;20.98;;
72261;SDS011;60173;52.112;8.648;2023-05-02T05:05:17;38.65;;;20.23;;
72261;SDS011;60173;52.112;8.648;2023-05-02T05:07:44;40.30;;;20.35;;
72261;SDS011;60173;52.112;8.648;2023-05-02T05:10:10;38.38;;;20.10;;
72261;SDS011;60173;52.112;8.648;2023-05-02T05:12:37;34.67;;;20.52;;
72261;SDS011;60173;52.112;8.648;2023-05-02T05:15:03;39.47;;;19.98;;
72261;SDS011;60173;52.112;8.648;2023-05-02T05:17:30;34.65;;;18.90;;
72261;SDS011;60173;52.112;8.648;2023-05-02T05:19:56;33.33;;;17.25;;
72261;SDS011;60173;52.112;8.648;2023-05-02T05:22:23;34.47;;;17.63;;
72261;SDS011;60173;52.112;8.648;2023-05-02T05:24:49;31.23;;;15.32;;
72261;SDS011;60173;52.112;8.648;2023-05-02T05:27:17;20.98;;;10.15;;
72261;SDS011;60173;52.112;8.648;2023-05-02T05:29:43;16.58;;;9.80;;
72261;SDS011;60173;52.112;8.648;2023-05-02T05:32:10;17.40;;;9.65;;
72261;SDS011;60173;52.112;8.648;2023-05-02T05:34:36;9.65;;;7.18;;
72261;SDS011;60173;52.112;8.648;2023-05-02T05:37:02;8.90;;;5.85;;
72261;SDS011;60173;52.112;8.648;2023-05-02T05:39:29;7.90;;;5.55;;
72261;SDS011;60173;52.112;8.648;2023-05-02T05:41:55;10.00;;;5.78;;
72261;SDS011;60173;52.112;8.648;2023-05-02T05:44:21;13.32;;;7.38;;
72261;SDS011;60173;52.112;8.648;2023-05-02T05:46:48;13.75;;;6.72;;
72261;SDS011;60173;52.112;8.648;2023-05-02T05:49:15;14.05;;;7.93;;
72261;SDS011;60173;52.112;8.648;2023-05-02T05:51:41;15.50;;;7.78;;
72261;SDS011;60173;52.112;8.648;2023-05-02T05:54:07;14.60;;;7.55;;
72261;SDS011;60173;52.112;8.648;2023-05-02T05:56:34;13.98;;;7.53;;
72261;SDS011;60173;52.112;8.648;2023-05-02T05:59:00;17.60;;;7.72;;
72261;SDS011;60173;52.112;8.648;2023-05-02T06:01:26;15.35;;;8.15;;
72261;SDS011;60173;52.112;8.648;2023-05-02T06:03:53;15.10;;;7.97;;
72261;SDS011;60173;52.112;8.648;2023-05-02T06:06:19;17.10;;;8.20;;
72261;SDS011;60173;52.112;8.648;2023-05-02T06:08:45;17.95;;;9.50;;
72261;SDS011;60173;52.112;8.648;2023-05-02T06:11:12;20.60;;;9.23;;
72261;SDS011;60173;52.112;8.648;2023-05-02T06:13:38;21.95;;;9.63;;
72261;SDS011;60173;52.112;8.648;2023-05-02T06:16:05;21.05;;;9.70;;
72261;SDS011;60173;52.112;8.648;2023-05-02T06:18:31;23.17;;;10.27;;
72261;SDS011;60173;52.112;8.648;2023-05-02T06:21:02;21.00;;;9.90;;
72261;SDS011;60173;52.112;8.648;2023-05-02T06:23:29;18.35;;;10.32;;
72261;SDS011;60173;52.112;8.648;2023-05-02T06:25:57;25.75;;;12.20;;
72261;SDS011;60173;52.112;8.648;2023-05-02T06:28:24;28.67;;;12.35;;
72261;SDS011;60173;52.112;8.648;2023-05-02T06:30:58;25.27;;;12.63;;
72261;SDS011;60173;52.112;8.648;2023-05-02T06:33:28;21.15;;;11.60;;
72261;SDS011;60173;52.112;8.648;2023-05-02T06:35:55;23.10;;;10.40;;
72261;SDS011;60173;52.112;8.648;2023-05-02T06:38:23;26.17;;;10.65;;
72261;SDS011;60173;52.112;8.648;2023-05-02T06:40:50;18.15;;;10.00;;
72261;SDS011;60173;52.112;8.648;2023-05-02T06:43:17;19.58;;;9.30;;
72261;SDS011;60173;52.112;8.648;2023-05-02T06:45:43;25.65;;;10.32;;
72261;SDS011;60173;52.112;8.648;2023-05-02T06:48:10;19.27;;;9.52;;
72261;SDS011;60173;52.112;8.648;2023-05-02T06:50:37;19.88;;;9.32;;
72261;SDS011;60173;52.112;8.648;2023-05-02T06:53:03;17.48;;;8.05;;
72261;SDS011;60173;52.112;8.648;2023-05-02T06:55:30;17.52;;;8.00;;
72261;SDS011;60173;52.112;8.648;2023-05-02T06:57:56;15.35;;;7.57;;
72261;SDS011;60173;52.112;8.648;2023-05-02T07:00:23;22.48;;;8.60;;
72261;SDS011;60173;52.112;8.648;2023-05-02T07:02:49;24.92;;;7.40;;
72261;SDS011;60173;52.112;8.648;2023-05-02T07:05:15;26.23;;;7.90;;
72261;SDS011;60173;52.112;8.648;2023-05-02T07:07:42;15.25;;;5.78;;
72261;SDS011;60173;52.112;8.648;2023-05-02T07:10:09;19.85;;;5.45;;
72261;SDS011;60173;52.112;8.648;2023-05-02T07:12:36;15.10;;;4.88;;
72261;SDS011;60173;52.112;8.648;2023-05-02T07:15:04;21.38;;;5.45;;
72261;SDS011;60173;52.112;8.648;2023-05-02T07:17:31;15.68;;;5.10;;
72261;SDS011;60173;52.112;8.648;2023-05-02T07:19:57;17.60;;;5.20;;
72261;SDS011;60173;52.112;8.648;2023-05-02T07:22:24;17.65;;;5.55;;
72261;SDS011;60173;52.112;8.648;2023-05-02T07:25:02;20.02;;;5.50;;
72261;SDS011;60173;52.112;8.648;2023-05-02T07:27:28;20.77;;;6.10;;
72261;SDS011;60173;52.112;8.648;2023-05-02T07:29:55;26.00;;;6.57;;
72261;SDS011;60173;52.112;8.648;2023-05-02T07:32:21;20.92;;;6.35;;
72261;SDS011;60173;52.112;8.648;2023-05-02T07:34:47;22.35;;;6.65;;
72261;SDS011;60173;52.112;8.648;2023-05-02T07:37:14;23.13;;;6.43;;
72261;SDS011;60173;52.112;8.648;2023-05-02T07:39:40;21.10;;;6.70;;
72261;SDS011;60173;52.112;8.648;2023-05-02T07:42:06;24.25;;;5.95;;
72261;SDS011;60173;52.112;8.648;2023-05-02T07:44:33;23.30;;;6.47;;
72261;SDS011;60173;52.112;8.648;2023-05-02T07:46:59;25.95;;;6.07;;
72261;SDS011;60173;52.112;8.648;2023-05-02T07:49:25;16.95;;;6.30;;
72261;SDS011;60173;52.112;8.648;2023-05-02T07:51:52;29.95;;;6.82;;
72261;SDS011;60173;52.112;8.648;2023-05-02T07:54:19;22.60;;;6.07;;
72261;SDS011;60173;52.112;8.648;2023-05-02T07:56:46;17.88;;;5.60;;
72261;SDS011;60173;52.112;8.648;2023-05-02T07:59:12;19.80;;;6.68;;
72261;SDS011;60173;52.112;8.648;2023-05-02T08:01:39;22.83;;;6.40;;
72261;SDS011;60173;52.112;8.648;2023-05-02T08:04:06;31.05;;;6.63;;
72261;SDS011;60173;52.112;8.648;2023-05-02T08:06:33;19.88;;;6.15;;
72261;SDS011;60173;52.112;8.648;2023-05-02T08:09:00;23.20;;;6.32;;
72261;SDS011;60173;52.112;8.648;2023-05-02T08:11:26;20.60;;;5.78;;
72261;SDS011;60173;52.112;8.648;2023-05-02T08:13:53;26.77;;;6.10;;
72261;SDS011;60173;52.112;8.648;2023-05-02T08:16:20;19.10;;;5.85;;
72261;SDS011;60173;52.112;8.648;2023-05-02T08:18:46;24.23;;;6.80;;
72261;SDS011;60173;52.112;8.648;2023-05-02T08:21:13;21.45;;;6.30;;
72261;SDS011;60173;52.112;8.648;2023-05-02T08:23:39;25.75;;;6.95;;
72261;SDS011;60173;52.112;8.648;2023-05-02T08:26:06;25.98;;;6.38;;
72261;SDS011;60173;52.112;8.648;2023-05-02T08:28:33;21.48;;;6.38;;
72261;SDS011;60173;52.112;8.648;2023-05-02T08:30:59;21.55;;;7.18;;
72261;SDS011;60173;52.112;8.648;2023-05-02T08:33:25;22.17;;;6.93;;
72261;SDS011;60173;52.112;8.648;2023-05-02T08:35:52;24.52;;;6.72;;
72261;SDS011;60173;52.112;8.648;2023-05-02T08:38:18;21.52;;;6.00;;
72261;SDS011;60173;52.112;8.648;2023-05-02T08:40:44;20.13;;;5.93;;
72261;SDS011;60173;52.112;8.648;2023-05-02T08:43:11;21.10;;;5.10;;
72261;SDS011;60173;52.112;8.648;2023-05-02T08:45:39;18.70;;;5.15;;
72261;SDS011;60173;52.112;8.648;2023-05-02T08:48:07;24.27;;;6.10;;
72261;SDS011;60173;52.112;8.648;2023-05-02T08:50:39;24.42;;;5.72;;
72261;SDS011;60173;52.112;8.648;2023-05-02T08:53:07;16.23;;;4.32;;
72261;SDS011;60173;52.112;8.648;2023-05-02T08:55:35;18.90;;;4.47;;
72261;SDS011;60173;52.112;8.648;2023-05-02T08:58:04;13.10;;;3.70;;
72261;SDS011;60173;52.112;8.648;2023-05-02T09:00:37;15.63;;;4.05;;
72261;SDS011;60173;52.112;8.648;2023-05-02T09:05:57;11.63;;;3.45;;
72261;SDS011;60173;52.112;8.648;2023-05-02T09:08:30;11.45;;;3.00;;
72261;SDS011;60173;52.112;8.648;2023-05-02T09:10:56;15.75;;;3.28;;
72261;SDS011;60173;52.112;8.648;2023-05-02T09:13:29;14.70;;;3.60;;
72261;SDS011;60173;52.112;8.648;2023-05-02T09:16:10;13.75;;;2.70;;
72261;SDS011;60173;52.112;8.648;2023-05-02T09:18:41;7.38;;;2.72;;
72261;SDS011;60173;52.112;8.648;2023-05-02T09:21:12;13.63;;;3.30;;
72261;SDS011;60173;52.112;8.648;2023-05-02T09:23:53;20.15;;;3.50;;
72261;SDS011;60173;52.112;8.648;2023-05-02T09:26:25;10.88;;;3.38;;
72261;SDS011;60173;52.112;8.648;2023-05-02T09:28:56;11.35;;;3.38;;
72261;SDS011;60173;52.112;8.648;2023-05-02T09:31:24;16.08;;;3.15;;
72261;SDS011;60173;52.112;8.648;2023-05-02T09:34:12;9.25;;;3.30;;
72261;SDS011;60173;52.112;8.648;2023-05-02T09:36:43;13.43;;;3.45;;
72261;SDS011;60173;52.112;8.648;2023-05-02T09:39:15;13.50;;;3.75;;
72261;SDS011;60173;52.112;8.648;2023-05-02T09:41:43;12.23;;;2.95;;
72261;SDS011;60173;52.112;8.648;2023-05-02T09:44:11;14.25;;;3.17;;
72261;SDS011;60173;52.112;8.648;2023-05-02T09:46:39;9.95;;;3.65;;
72261;SDS011;60173;52.112;8.648;2023-05-02T09:49:13;11.60;;;3.20;;
72261;SDS011;60173;52.112;8.648;2023-05-02T09:51:41;11.25;;;3.35;;
72261;SDS011;60173;52.112;8.648;2023-05-02T09:54:07;21.60;;;4.00;;
72261;SDS011;60173;52.112;8.648;2023-05-02T09:56:53;13.82;;;3.83;;
72261;SDS011;60173;52.112;8.648;2023-05-02T09:59:20;18.70;;;4.32;;
72261;SDS011;60173;52.112;8.648;2023-05-02T10:01:56;18.70;;;4.03;;
72261;SDS011;60173;52.112;8.648;2023-05-02T10:04:32;15.70;;;3.72;;
72261;SDS011;60173;52.112;8.648;2023-05-02T10:06:59;16.45;;;3.80;;
72261;SDS011;60173;52.112;8.648;2023-05-02T10:09:28;16.38;;;3.80;;
72261;SDS011;60173;52.112;8.648;2023-05-02T10:11:55;15.05;;;3.83;;
72261;SDS011;60173;52.112;8.648;2023-05-02T10:14:22;16.42;;;4.28;;
72261;SDS011;60173;52.112;8.648;2023-05-02T10:16:54;17.10;;;4.85;;
72261;SDS011;60173;52.112;8.648;2023-05-02T10:19:44;19.50;;;5.13;;
72261;SDS011;60173;52.112;8.648;2023-05-02T10:22:18;10.88;;;3.67;;
72261;SDS011;60173;52.112;8.648;2023-05-02T10:24:49;20.58;;;4.53;;
72261;SDS011;60173;52.112;8.648;2023-05-02T10:27:17;14.63;;;3.80;;
72261;SDS011;60173;52.112;8.648;2023-05-02T10:29:43;18.95;;;4.00;;
72261;SDS011;60173;52.112;8.648;2023-05-02T10:32:12;12.00;;;4.15;;
72261;SDS011;60173;52.112;8.648;2023-05-02T10:34:40;11.90;;;3.58;;
72261;SDS011;60173;52.112;8.648;2023-05-02T10:37:07;9.52;;;4.03;;
72261;SDS011;60173;52.112;8.648;2023-05-02T10:39:33;14.75;;;3.60;;
72261;SDS011;60173;52.112;8.648;2023-05-02T10:42:01;13.60;;;3.55;;
72261;SDS011;60173;52.112;8.648;2023-05-02T10:44:33;19.70;;;4.13;;
72261;SDS011;60173;52.112;8.648;2023-05-02T10:47:19;13.57;;;3.88;;
72261;SDS011;60173;52.112;8.648;2023-05-02T10:49:50;19.20;;;4.50;;
72261;SDS011;60173;52.112;8.648;2023-05-02T10:52:29;19.20;;;4.50;;
72261;SDS011;60173;52.112;8.648;2023-05-02T11:00:22;12.88;;;4.20;;
72261;SDS011;60173;52.112;8.648;2023-05-02T11:02:53;17.48;;;4.25;;
72261;SDS011;60173;52.112;8.648;2023-05-02T11:05:20;17.08;;;4.25;;
72261;SDS011;60173;52.112;8.648;2023-05-02T11:07:47;10.15;;;3.83;;
72261;SDS011;60173;52.112;8.648;2023-05-02T11:12:44;14.55;;;3.90;;
72261;SDS011;60173;52.112;8.648;2023-05-02T11:15:12;12.85;;;4.00;;
72261;SDS011;60173;52.112;8.648;2023-05-02T11:20:32;11.43;;;4.03;;
72261;SDS011;60173;52.112;8.648;2023-05-02T11:25:47;13.48;;;3.72;;
72261;SDS011;60173;52.112;8.648;2023-05-02T11:31:06;12.38;;;3.90;;
72261;SDS011;60173;52.112;8.648;2023-05-02T11:33:33;15.27;;;4.18;;
72261;SDS011;60173;52.112;8.648;2023-05-02T11:36:00;10.23;;;3.30;;
72261;SDS011;60173;52.112;8.648;2023-05-02T11:38:34;12.70;;;3.95;;
72261;SDS011;60173;52.112;8.648;2023-05-02T11:41:02;15.82;;;3.58;;
72261;SDS011;60173;52.112;8.648;2023-05-02T11:43:28;12.82;;;3.70;;
72261;SDS011;60173;52.112;8.648;2023-05-02T11:45:57;15.27;;;4.00;;
72261;SDS011;60173;52.112;8.648;2023-05-02T11:48:25;11.00;;;3.33;;
72261;SDS011;60173;52.112;8.648;2023-05-02T11:50:56;7.63;;;3.00;;
72261;SDS011;60173;52.112;8.648;2023-05-02T11:53:25;11.48;;;3.22;;
72261;SDS011;60173;52.112;8.648;2023-05-02T11:55:55;13.13;;;3.28;;
72261;SDS011;60173;52.112;8.648;2023-05-02T11:58:27;14.88;;;3.30;;
72261;SDS011;60173;52.112;8.648;2023-05-02T12:00:55;11.27;;;3.35;;
72261;SDS011;60173;52.112;8.648;2023-05-02T12:03:28;13.25;;;3.63;;
72261;SDS011;60173;52.112;8.648;2023-05-02T12:05:56;11.98;;;3.67;;
72261;SDS011;60173;52.112;8.648;2023-05-02T12:08:33;11.07;;;3.75;;
72261;SDS011;60173;52.112;8.648;2023-05-02T12:10:59;13.02;;;3.70;;
72261;SDS011;60173;52.112;8.648;2023-05-02T12:13:25;15.52;;;3.42;;
72261;SDS011;60173;52.112;8.648;2023-05-02T12:15:52;13.27;;;3.40;;
72261;SDS011;60173;52.112;8.648;2023-05-02T12:18:20;8.80;;;3.22;;
72261;SDS011;60173;52.112;8.648;2023-05-02T12:20:49;9.73;;;3.35;;
72261;SDS011;60173;52.112;8.648;2023-05-02T12:23:16;17.65;;;4.20;;
72261;SDS011;60173;52.112;8.648;2023-05-02T12:25:45;10.82;;;3.53;;
72261;SDS011;60173;52.112;8.648;2023-05-02T12:28:11;14.68;;;3.88;;
72261;SDS011;60173;52.112;8.648;2023-05-02T12:30:38;10.45;;;3.65;;
72261;SDS011;60173;52.112;8.648;2023-05-02T12:33:05;8.60;;;3.00;;
72261;SDS011;60173;52.112;8.648;2023-05-02T12:35:32;11.35;;;3.70;;
72261;SDS011;60173;52.112;8.648;2023-05-02T12:38:07;13.13;;;4.55;;
72261;SDS011;60173;52.112;8.648;2023-05-02T12:43:02;19.10;;;4.15;;
72261;SDS011;60173;52.112;8.648;2023-05-02T12:45:29;14.10;;;3.90;;
72261;SDS011;60173;52.112;8.648;2023-05-02T12:47:56;16.30;;;4.93;;
72261;SDS011;60173;52.112;8.648;2023-05-02T12:50:33;11.75;;;4.15;;
72261;SDS011;60173;52.112;8.648;2023-05-02T12:53:03;13.32;;;3.92;;
72261;SDS011;60173;52.112;8.648;2023-05-02T12:55:30;15.00;;;3.45;;
72261;SDS011;60173;52.112;8.648;2023-05-02T12:58:03;16.67;;;4.85;;
72261;SDS011;60173;52.112;8.648;2023-05-02T13:00:35;12.68;;;3.72;;
72261;SDS011;60173;52.112;8.648;2023-05-02T13:03:03;11.73;;;3.80;;
72261;SDS011;60173;52.112;8.648;2023-05-02T13:05:30;13.73;;;4.25;;
72261;SDS011;60173;52.112;8.648;2023-05-02T13:07:56;18.83;;;4.32;;
72261;SDS011;60173;52.112;8.648;2023-05-02T13:10:23;16.02;;;4.18;;
72261;SDS011;60173;52.112;8.648;2023-05-02T13:12:49;14.05;;;3.55;;
72261;SDS011;60173;52.112;8.648;2023-05-02T13:15:16;10.30;;;4.03;;
72261;SDS011;60173;52.112;8.648;2023-05-02T13:17:42;17.27;;;4.28;;
72261;SDS011;60173;52.112;8.648;2023-05-02T13:20:09;15.80;;;4.07;;
72261;SDS011;60173;52.112;8.648;2023-05-02T13:22:37;13.85;;;4.20;;
72261;SDS011;60173;52.112;8.648;2023-05-02T13:25:04;11.27;;;4.25;;
72261;SDS011;60173;52.112;8.648;2023-05-02T13:27:31;10.30;;;4.03;;
72261;SDS011;60173;52.112;8.648;2023-05-02T13:29:57;11.30;;;3.75;;
72261;SDS011;60173;52.112;8.648;2023-05-02T13:32:24;16.02;;;4.20;;
72261;SDS011;60173;52.112;8.648;2023-05-02T13:34:50;19.85;;;4.85;;
72261;SDS011;60173;52.112;8.648;2023-05-02T13:37:17;15.18;;;4.45;;
72261;SDS011;60173;52.112;8.648;2023-05-02T13:39:43;24.90;;;4.95;;
72261;SDS011;60173;52.112;8.648;2023-05-02T13:42:10;14.13;;;5.15;;
72261;SDS011;60173;52.112;8.648;2023-05-02T13:44:36;15.10;;;5.07;;
72261;SDS011;60173;52.112;8.648;2023-05-02T13:47:02;15.45;;;4.47;;
72261;SDS011;60173;52.112;8.648;2023-05-02T13:49:29;11.75;;;3.97;;
72261;SDS011;60173;52.112;8.648;2023-05-02T13:51:55;10.25;;;4.13;;
72261;SDS011;60173;52.112;8.648;2023-05-02T13:54:22;11.77;;;4.10;;
72261;SDS011;60173;52.112;8.648;2023-05-02T13:56:48;15.30;;;4.97;;
72261;SDS011;60173;52.112;8.648;2023-05-02T13:59:14;13.65;;;4.22;;
72261;SDS011;60173;52.112;8.648;2023-05-02T14:01:41;12.43;;;4.43;;
72261;SDS011;60173;52.112;8.648;2023-05-02T14:04:07;11.90;;;4.32;;
72261;SDS011;60173;52.112;8.648;2023-05-02T14:06:34;15.60;;;4.47;;
72261;SDS011;60173;52.112;8.648;2023-05-02T14:09:00;12.30;;;4.05;;
72261;SDS011;60173;52.112;8.648;2023-05-02T14:11:27;15.18;;;4.28;;
72261;SDS011;60173;52.112;8.648;2023-05-02T14:13:53;8.93;;;4.15;;
72261;SDS011;60173;52.112;8.648;2023-05-02T14:16:20;14.95;;;4.10;;
72261;SDS011;60173;52.112;8.648;2023-05-02T14:18:46;10.10;;;4.05;;
72261;SDS011;60173;52.112;8.648;2023-05-02T14:21:12;13.82;;;4.13;;
72261;SDS011;60173;52.112;8.648;2023-05-02T14:23:39;9.57;;;3.75;;
72261;SDS011;60173;52.112;8.648;2023-05-02T14:26:05;12.70;;;4.05;;
72261;SDS011;60173;52.112;8.648;2023-05-02T14:28:31;9.93;;;4.38;;
72261;SDS011;60173;52.112;8.648;2023-05-02T14:30:58;14.30;;;4.35;;
72261;SDS011;60173;52.112;8.648;2023-05-02T14:33:24;15.95;;;4.85;;
72261;SDS011;60173;52.112;8.648;2023-05-02T14:35:50;9.95;;;4.05;;
72261;SDS011;60173;52.112;8.648;2023-05-02T14:38:17;9.52;;;4.03;;
72261;SDS011;60173;52.112;8.648;2023-05-02T14:40:43;12.60;;;4.05;;
72261;SDS011;60173;52.112;8.648;2023-05-02T14:43:09;14.98;;;3.78;;
72261;SDS011;60173;52.112;8.648;2023-05-02T14:45:37;9.30;;;3.80;;
72261;SDS011;60173;52.112;8.648;2023-05-02T14:48:03;11.20;;;3.58;;
72261;SDS011;60173;52.112;8.648;2023-05-02T14:50:30;13.57;;;3.75;;
72261;SDS011;60173;52.112;8.648;2023-05-02T14:52:56;9.70;;;3.42;;
72261;SDS011;60173;52.112;8.648;2023-05-02T14:55:23;7.95;;;3.72;;
72261;SDS011;60173;52.112;8.648;2023-05-02T14:57:49;9.02;;;3.55;;
72261;SDS011;60173;52.112;8.648;2023-05-02T15:00:15;8.02;;;3.55;;
72261;SDS011;60173;52.112;8.648;2023-05-02T15:02:42;11.40;;;3.33;;
72261;SDS011;60173;52.112;8.648;2023-05-02T15:05:08;10.27;;;4.05;;
72261;SDS011;60173;52.112;8.648;2023-05-02T15:07:35;11.35;;;3.45;;
72261;SDS011;60173;52.112;8.648;2023-05-02T15:10:01;9.00;;;3.15;;
72261;SDS011;60173;52.112;8.648;2023-05-02T15:12:28;11.77;;;3.67;;
72261;SDS011;60173;52.112;8.648;2023-05-02T15:14:54;12.00;;;3.60;;